Terminal Aerodrome Forecast
Issued by NWS

Home | Current Version | Previous Version | Text Only | Print | Product List | Glossary On
Versions: 1 2 3 4 5 6 7 8 9 10 11 12 13 14 15 16 17 18 19 20
059
FTUS44 KBMX 221120
TAFTOI
TAF
KTOI 221120Z 2212/2312 36004KT P6SM SCT025 BKN120
     FM221500 01009KT P6SM SCT100
     FM230300 00000KT P6SM SKC=

USA.gov is the U.S. government's official web portal to all federal, state and local government web resources and services.